createdAt,value
2019-02-28T00:00:58.974Z,54.06
2019-02-28T00:06:22.593Z,54.67
2019-02-28T00:11:47.332Z,54.69
2019-02-28T00:17:10.857Z,54.64
2019-02-28T00:22:34.722Z,55.10
2019-02-28T00:27:59.106Z,55.31
2019-02-28T00:33:23.780Z,55.66
2019-02-28T00:38:47.392Z,55.88
2019-02-28T00:44:11.106Z,56.45
2019-02-28T00:49:35.780Z,56.68
2019-02-28T00:55:00.979Z,57.10
2019-02-28T01:00:25.457Z,57.31
2019-02-28T01:05:50.594Z,57.40
2019-02-28T01:11:14.294Z,57.91
2019-02-28T01:16:38.245Z,58.13
2019-02-28T01:22:02.124Z,58.01
2019-02-28T01:27:26.769Z,58.08
2019-02-28T01:32:51.173Z,58.25
2019-02-28T01:38:16.704Z,58.11
2019-02-28T01:43:40.706Z,58.22
2019-02-28T01:49:04.696Z,58.49
2019-02-28T01:54:29.692Z,58.76
2019-02-28T01:59:53.678Z,58.91
2019-02-28T02:05:18.477Z,59.59
2019-02-28T02:10:42.123Z,59.86
2019-02-28T02:16:06.597Z,59.92
2019-02-28T02:21:34.899Z,60.47
2019-02-28T02:26:56.960Z,61.00
2019-02-28T02:32:21.872Z,60.72
2019-02-28T02:37:46.594Z,59.69
2019-02-28T02:43:10.600Z,59.18
2019-02-28T02:48:34.213Z,58.44
2019-02-28T02:53:59.024Z,58.13
2019-02-28T02:59:23.771Z,57.69
2019-02-28T03:04:48.263Z,57.46
2019-02-28T03:10:17.523Z,57.03
2019-02-28T03:15:38.264Z,57.16
2019-02-28T03:21:02.065Z,57.21
2019-02-28T03:26:26.701Z,57.59
2019-02-28T03:31:56.440Z,57.82
2019-02-28T03:37:16.768Z,57.96
2019-02-28T03:42:40.748Z,58.50
2019-02-28T03:48:04.825Z,58.83
2019-02-28T03:53:28.474Z,58.86
2019-02-28T03:58:52.592Z,58.88
2019-02-28T04:04:17.370Z,59.83
2019-02-28T04:09:44.313Z,59.91
2019-02-28T04:15:10.221Z,60.14
2019-02-28T04:20:37.391Z,60.64
2019-02-28T04:25:59.283Z,61.19
2019-02-28T04:31:24.337Z,62.05
2019-02-28T04:36:47.861Z,62.68
2019-02-28T04:42:12.259Z,63.08
2019-02-28T04:47:37.310Z,63.14
2019-02-28T04:53:02.151Z,63.23
2019-02-28T04:58:26.537Z,62.16
2019-02-28T05:03:52.684Z,62.16
2019-02-28T05:09:16.773Z,62.69
2019-02-28T05:14:41.502Z,62.53
2019-02-28T05:20:07.326Z,62.21
2019-02-28T05:25:31.282Z,62.34
2019-02-28T05:30:55.068Z,63.14
2019-02-28T05:36:19.786Z,63.20
2019-02-28T05:41:49.116Z,63.54
2019-02-28T05:47:11.698Z,63.89
2019-02-28T05:52:35.296Z,64.49
2019-02-28T05:57:59.724Z,64.28
2019-02-28T06:03:24.825Z,64.84
2019-02-28T06:08:49.633Z,64.66
2019-02-28T06:14:14.245Z,64.54
2019-02-28T06:19:40.181Z,64.57
2019-02-28T06:25:03.823Z,64.23
2019-02-28T06:30:27.963Z,63.23
2019-02-28T06:35:54.454Z,62.50
2019-02-28T06:41:19.543Z,61.93
2019-02-28T06:46:43.991Z,61.58
2019-02-28T06:52:08.631Z,60.84
2019-02-28T06:57:33.253Z,60.47
2019-02-28T07:02:57.879Z,59.76
2019-02-28T07:08:24.937Z,59.64
2019-02-28T07:13:49.133Z,59.71
2019-02-28T07:19:13.379Z,58.99
2019-02-28T07:24:38.264Z,59.78
2019-02-28T07:30:01.973Z,59.96
2019-02-28T07:35:26.411Z,58.21
2019-02-28T07:40:51.291Z,59.05
2019-02-28T07:46:15.588Z,57.80
2019-02-28T07:51:40.814Z,57.99
2019-02-28T07:57:07.832Z,57.48
2019-02-28T08:02:32.387Z,58.70
2019-02-28T08:07:58.379Z,56.43
2019-02-28T08:13:22.052Z,55.37
2019-02-28T08:18:46.821Z,57.96
2019-02-28T08:24:11.833Z,58.80
2019-02-28T08:29:35.698Z,58.97
2019-02-28T08:34:59.667Z,58.42
2019-02-28T08:40:26.651Z,58.77
2019-02-28T08:45:51.894Z,58.50
2019-02-28T08:51:16.048Z,58.15
2019-02-28T08:56:39.719Z,58.20
2019-02-28T09:02:04.544Z,58.25
2019-02-28T09:07:29.303Z,59.26
2019-02-28T09:12:53.352Z,59.36
2019-02-28T09:18:17.793Z,58.26
2019-02-28T09:23:42.448Z,57.34
2019-02-28T09:29:06.303Z,54.86
2019-02-28T09:34:31.614Z,53.47
2019-02-28T09:39:56.460Z,51.15
2019-02-28T09:45:20.693Z,49.14
2019-02-28T09:50:44.525Z,49.39
2019-02-28T09:56:10.247Z,50.47
2019-02-28T10:01:35.139Z,48.58
2019-02-28T10:06:58.796Z,49.02
2019-02-28T10:12:23.349Z,45.23
2019-02-28T10:17:48.076Z,42.96
2019-02-28T10:23:13.342Z,43.47
2019-02-28T10:28:38.132Z,42.24
2019-02-28T10:34:02.683Z,40.56
2019-02-28T10:39:26.582Z,40.96
2019-02-28T10:44:51.017Z,44.21
2019-02-28T10:50:17.485Z,41.41
2019-02-28T10:55:41.350Z,42.32
2019-02-28T11:01:08.977Z,42.75
2019-02-28T11:06:38.791Z,42.38
2019-02-28T11:12:02.760Z,41.95
2019-02-28T11:17:27.124Z,42.40
2019-02-28T11:22:51.557Z,44.35
2019-02-28T11:28:16.349Z,43.93
2019-02-28T11:33:41.628Z,44.13
2019-02-28T11:39:07.056Z,44.48
2019-02-28T11:44:32.025Z,43.32
2019-02-28T11:49:56.762Z,43.97
2019-02-28T11:55:21.435Z,40.93
2019-02-28T12:00:46.188Z,41.06
2019-02-28T12:06:11.127Z,41.34
2019-02-28T12:11:36.528Z,42.57
2019-02-28T12:17:00.366Z,41.06
2019-02-28T12:22:25.143Z,40.66
2019-02-28T12:27:48.977Z,42.36
2019-02-28T12:33:15.371Z,41.17
2019-02-28T12:38:39.346Z,40.88
2019-02-28T12:44:03.224Z,39.47
2019-02-28T12:49:27.703Z,39.35
2019-02-28T12:54:51.846Z,38.49
2019-02-28T13:00:19.817Z,41.27
2019-02-28T13:05:43.141Z,41.45
2019-02-28T13:11:08.281Z,42.29
2019-02-28T13:16:33.080Z,43.03
2019-02-28T13:21:57.220Z,41.91
2019-02-28T13:27:21.767Z,40.99
2019-02-28T13:32:46.587Z,41.53
2019-02-28T13:38:17.684Z,43.51
2019-02-28T13:43:37.404Z,43.73
2019-02-28T13:49:01.832Z,45.72
2019-02-28T13:54:26.947Z,45.99
2019-02-28T13:59:52.772Z,47.33
2019-02-28T14:05:17.670Z,46.26
2019-02-28T14:10:41.976Z,46.77
2019-02-28T14:16:05.975Z,47.87
2019-02-28T14:21:29.923Z,48.15
2019-02-28T14:26:54.623Z,48.47
2019-02-28T14:32:19.536Z,49.60
2019-02-28T14:37:44.265Z,50.92
2019-02-28T14:43:08.945Z,51.94
2019-02-28T14:48:36.673Z,51.38
2019-02-28T14:53:59.983Z,50.58
2019-02-28T14:59:24.351Z,50.24
2019-02-28T15:04:48.785Z,50.86
2019-02-28T15:10:15.107Z,50.70
2019-02-28T15:15:39.129Z,51.43
2019-02-28T15:21:04.442Z,52.79
2019-02-28T15:26:32.161Z,52.75
2019-02-28T15:31:56.819Z,54.48
2019-02-28T15:37:20.908Z,55.09
2019-02-28T15:42:44.812Z,55.58
2019-02-28T15:48:09.245Z,55.66
2019-02-28T15:53:33.425Z,56.45
2019-02-28T15:58:57.955Z,57.46
2019-02-28T16:04:23.549Z,57.89
2019-02-28T16:09:48.053Z,58.81
2019-02-28T16:15:13.310Z,59.75
2019-02-28T16:20:38.383Z,60.21
2019-02-28T16:26:01.988Z,60.66
2019-02-28T16:31:26.229Z,61.45
2019-02-28T16:36:50.987Z,62.14
2019-02-28T16:42:17.461Z,62.66
2019-02-28T16:47:42.313Z,62.95
2019-02-28T16:53:07.667Z,63.15
2019-02-28T16:58:58.112Z,63.66
2019-02-28T17:04:31.499Z,63.94
2019-02-28T17:16:42.154Z,65.58
2019-02-28T17:22:06.463Z,66.46
2019-02-28T17:27:38.697Z,67.35
2019-02-28T17:33:01.197Z,68.78
2019-02-28T17:38:26.519Z,69.83
2019-02-28T17:44:11.561Z,70.72
2019-02-28T17:50:32.061Z,71.23
2019-02-28T17:56:40.825Z,72.60
2019-02-28T18:02:29.183Z,73.06
2019-02-28T18:08:07.156Z,73.63
2019-02-28T18:13:42.192Z,73.81
2019-02-28T18:19:33.726Z,74.26
2019-02-28T18:25:32.533Z,74.28
2019-02-28T18:31:14.283Z,74.73
2019-02-28T18:36:40.248Z,74.94
2019-02-28T18:42:04.388Z,75.44
2019-02-28T18:47:28.283Z,75.71
2019-02-28T18:52:52.124Z,75.90
2019-02-28T18:58:17.025Z,76.06
2019-02-28T19:03:41.451Z,76.66
2019-02-28T19:09:19.803Z,77.13
2019-02-28T19:14:44.025Z,77.37
2019-02-28T19:20:15.905Z,77.93
2019-02-28T19:25:39.502Z,78.12
2019-02-28T19:31:04.461Z,78.31
2019-02-28T19:36:28.744Z,78.64
2019-02-28T19:41:52.444Z,79.14
2019-02-28T19:47:17.250Z,79.39
2019-02-28T19:52:41.961Z,79.66
2019-02-28T19:58:06.398Z,79.84
2019-02-28T20:03:31.105Z,80.04
2019-02-28T20:08:55.299Z,79.97
2019-02-28T20:14:19.288Z,79.60
2019-02-28T20:19:44.067Z,79.35
2019-02-28T20:25:10.260Z,79.80
2019-02-28T20:30:36.331Z,80.46
2019-02-28T20:36:00.067Z,80.49
2019-02-28T20:41:25.080Z,80.38
2019-02-28T20:46:49.216Z,80.72
2019-02-28T20:52:13.655Z,80.81
2019-02-28T20:57:37.416Z,80.67
2019-02-28T21:03:01.990Z,80.56
2019-02-28T21:08:26.214Z,80.26
2019-02-28T21:13:50.117Z,80.32
2019-02-28T21:19:14.816Z,80.03
2019-02-28T21:24:39.406Z,79.57
2019-02-28T21:30:04.803Z,79.37
2019-02-28T21:35:30.609Z,79.11
2019-02-28T21:40:54.683Z,79.06
2019-02-28T21:46:19.514Z,78.78
2019-02-28T21:51:43.810Z,78.61
2019-02-28T21:57:07.388Z,78.48
2019-02-28T22:02:32.107Z,78.64
2019-02-28T22:07:56.474Z,78.48
2019-02-28T22:13:21.054Z,78.49
2019-02-28T22:18:45.966Z,77.97
2019-02-28T22:24:10.672Z,78.13
2019-02-28T22:29:35.411Z,78.14
2019-02-28T22:35:11.904Z,79.00
2019-02-28T22:40:36.632Z,78.72
2019-02-28T22:46:01.075Z,78.89
2019-02-28T22:51:24.850Z,78.70
2019-02-28T22:56:49.250Z,77.91
2019-02-28T23:02:13.200Z,77.99
2019-02-28T23:07:37.064Z,78.97
2019-02-28T23:13:00.844Z,79.81
2019-02-28T23:18:24.856Z,79.77
2019-02-28T23:23:49.378Z,80.63
2019-02-28T23:29:17.731Z,80.21
2019-02-28T23:34:47.874Z,79.91
2019-02-28T23:40:11.622Z,80.23
2019-02-28T23:45:36.076Z,81.06
2019-02-28T23:51:00.045Z,80.50
2019-02-28T23:56:24.672Z,80.77
